createdAt,value
2017-12-26T00:00:26.246Z,1002.55
2017-12-26T00:01:26.042Z,1002.50
2017-12-26T00:02:26.160Z,1002.46
2017-12-26T00:03:25.978Z,1002.49
2017-12-26T00:04:26.077Z,1002.41
2017-12-26T00:05:25.916Z,1002.37
2017-12-26T00:06:25.979Z,1002.28
2017-12-26T00:07:25.857Z,1002.20
2017-12-26T00:08:25.994Z,1002.20
2017-12-26T00:09:25.786Z,1002.17
2017-12-26T00:10:25.904Z,1002.12
2017-12-26T00:11:25.724Z,1002.02
2017-12-26T00:12:25.815Z,1001.94
2017-12-26T00:13:25.656Z,1002.05
2017-12-26T00:14:25.728Z,1002.00
2017-12-26T00:15:25.599Z,1001.96
2017-12-26T00:16:25.746Z,1001.91
2017-12-26T00:17:25.531Z,1001.92
2017-12-26T00:18:25.659Z,1001.82
2017-12-26T00:19:25.463Z,1001.85
2017-12-26T00:20:25.567Z,1001.78
2017-12-26T00:21:25.407Z,1001.81
2017-12-26T00:22:25.476Z,1001.81
2017-12-26T00:23:25.335Z,1001.73
2017-12-26T00:24:25.493Z,1001.71
2017-12-26T00:25:25.273Z,1001.66
2017-12-26T00:26:25.408Z,1001.64
2017-12-26T00:27:25.209Z,1001.61
2017-12-26T00:28:25.315Z,1001.54
2017-12-26T00:29:25.148Z,1001.57
2017-12-26T00:30:25.225Z,1001.49
2017-12-26T00:31:25.078Z,1001.54
2017-12-26T00:32:25.240Z,1001.51
2017-12-26T00:33:25.018Z,1001.50
2017-12-26T00:34:25.154Z,1001.47
2017-12-26T00:35:24.960Z,1001.46
2017-12-26T00:36:25.082Z,1001.53
2017-12-26T00:37:24.910Z,1001.52
2017-12-26T00:38:24.984Z,1001.51
2017-12-26T00:39:24.821Z,1001.48
2017-12-26T00:40:24.988Z,1001.54
2017-12-26T00:41:24.758Z,1001.58
2017-12-26T00:42:24.905Z,1001.58
2017-12-26T00:43:24.692Z,1001.61
2017-12-26T00:44:24.819Z,1001.54
2017-12-26T00:45:24.629Z,1001.57
2017-12-26T00:46:24.626Z,1001.51
2017-12-26T00:47:24.563Z,1001.51
2017-12-26T00:48:24.648Z,1001.50
2017-12-26T00:49:24.502Z,1001.46
2017-12-26T00:50:24.554Z,1001.40
2017-12-26T00:51:24.436Z,1001.36
2017-12-26T00:52:24.453Z,1001.29
2017-12-26T00:53:24.370Z,1001.29
2017-12-26T00:54:24.371Z,1001.27
2017-12-26T00:55:24.303Z,1001.25
2017-12-26T00:56:24.385Z,1001.19
2017-12-26T00:57:24.246Z,1001.13
2017-12-26T00:58:24.294Z,1001.12
2017-12-26T00:59:24.183Z,1001.09
2017-12-26T01:00:24.206Z,1001.02
2017-12-26T01:01:24.111Z,1000.96
2017-12-26T01:02:24.117Z,1000.90
2017-12-26T01:03:24.048Z,1000.92
2017-12-26T01:04:24.133Z,1000.87
2017-12-26T01:05:23.980Z,1000.85
2017-12-26T01:06:24.044Z,1000.86
2017-12-26T01:07:23.923Z,1000.86
2017-12-26T01:08:23.950Z,1000.81
2017-12-26T01:09:23.850Z,1000.83
2017-12-26T01:10:23.866Z,1000.83
2017-12-26T01:11:23.792Z,1000.75
2017-12-26T01:12:23.876Z,1000.72
2017-12-26T01:13:23.723Z,1000.74
2017-12-26T01:14:23.793Z,1000.72
2017-12-26T01:15:23.660Z,1000.76
2017-12-26T01:16:23.702Z,1000.81
2017-12-26T01:17:23.591Z,1000.88
2017-12-26T01:18:23.611Z,1000.88
2017-12-26T01:19:23.529Z,1000.88
2017-12-26T01:20:23.629Z,1000.84
2017-12-26T01:21:23.464Z,1000.78
2017-12-26T01:22:23.546Z,1000.81
2017-12-26T01:23:23.396Z,1000.77
2017-12-26T01:24:23.446Z,1000.70
2017-12-26T01:25:23.356Z,1000.65
2017-12-26T01:26:23.358Z,1000.64
2017-12-26T01:27:23.271Z,1000.61
2017-12-26T01:28:23.372Z,1000.59
2017-12-26T01:29:23.206Z,1000.56
2017-12-26T01:30:23.300Z,1000.50
2017-12-26T01:31:23.193Z,1000.46
2017-12-26T01:32:23.194Z,1000.38
2017-12-26T01:33:23.075Z,1000.37
2017-12-26T01:34:23.107Z,1000.33
2017-12-26T01:35:23.011Z,1000.34
2017-12-26T01:36:23.127Z,1000.31
2017-12-26T01:37:22.945Z,1000.31
2017-12-26T01:38:23.034Z,1000.34
2017-12-26T01:39:22.884Z,1000.33
2017-12-26T01:40:22.945Z,1000.35
2017-12-26T01:41:22.818Z,1000.33
2017-12-26T01:42:22.856Z,1000.28
2017-12-26T01:43:22.750Z,1000.23
2017-12-26T01:44:22.874Z,1000.23
2017-12-26T01:45:22.691Z,1000.18
2017-12-26T01:46:22.788Z,1000.16
2017-12-26T01:47:22.621Z,1000.16
2017-12-26T01:48:22.695Z,1000.16
2017-12-26T01:49:22.557Z,1000.18
2017-12-26T01:50:22.605Z,1000.16
2017-12-26T01:51:22.493Z,1000.11
2017-12-26T01:52:22.622Z,1000.14
2017-12-26T01:53:22.423Z,1000.06
2017-12-26T01:54:22.531Z,1000.05
2017-12-26T01:55:22.360Z,999.97
2017-12-26T01:56:22.443Z,999.95
2017-12-26T01:57:22.301Z,999.89
2017-12-26T01:58:22.357Z,999.90
2017-12-26T01:59:22.246Z,999.87
2017-12-26T02:00:22.371Z,999.84
2017-12-26T02:01:22.170Z,999.78
2017-12-26T02:02:22.280Z,999.78
2017-12-26T02:03:22.105Z,999.78
2017-12-26T02:04:22.196Z,999.80
2017-12-26T02:05:22.038Z,999.82
2017-12-26T02:06:22.103Z,999.71
2017-12-26T02:07:21.970Z,999.74
2017-12-26T02:08:22.115Z,999.68
2017-12-26T02:09:21.910Z,999.64
2017-12-26T02:10:22.029Z,999.58
2017-12-26T02:11:21.842Z,999.61
2017-12-26T02:12:21.946Z,999.60
2017-12-26T02:13:21.783Z,999.58
2017-12-26T02:14:21.850Z,999.57
2017-12-26T02:15:21.714Z,999.54
2017-12-26T02:16:21.868Z,999.53
2017-12-26T02:17:21.655Z,999.53
2017-12-26T02:18:21.777Z,999.53
2017-12-26T02:19:21.585Z,999.47
2017-12-26T02:20:21.689Z,999.42
2017-12-26T02:21:21.519Z,999.37
2017-12-26T02:22:21.608Z,999.33
2017-12-26T02:23:21.456Z,999.31
2017-12-26T02:24:21.510Z,999.29
2017-12-26T02:25:21.390Z,999.24
2017-12-26T02:26:21.533Z,999.24
2017-12-26T02:27:21.325Z,999.20
2017-12-26T02:28:21.444Z,999.13
2017-12-26T02:29:21.257Z,999.11
2017-12-26T02:30:21.351Z,999.06
2017-12-26T02:31:21.196Z,999.06
2017-12-26T02:32:21.268Z,998.94
2017-12-26T02:33:21.131Z,998.95
2017-12-26T02:34:21.280Z,998.89
2017-12-26T02:35:21.065Z,998.88
2017-12-26T02:36:21.193Z,998.88
2017-12-26T02:37:20.995Z,998.88
2017-12-26T02:38:21.102Z,998.79
2017-12-26T02:39:20.931Z,998.72
2017-12-26T02:40:21.010Z,998.67
2017-12-26T02:41:20.869Z,998.66
2017-12-26T02:42:21.023Z,998.59
2017-12-26T02:43:20.802Z,998.60
2017-12-26T02:44:20.932Z,998.56
2017-12-26T02:45:20.741Z,998.53
2017-12-26T02:46:20.847Z,998.46
2017-12-26T02:47:20.671Z,998.41
2017-12-26T02:48:20.761Z,998.41
2017-12-26T02:49:20.614Z,998.34
2017-12-26T02:50:20.781Z,998.32
2017-12-26T02:51:20.543Z,998.23
2017-12-26T02:52:20.685Z,998.25
2017-12-26T02:53:20.474Z,998.24
2017-12-26T02:54:20.596Z,998.23
2017-12-26T02:55:20.410Z,998.17
2017-12-26T02:56:20.507Z,998.17
2017-12-26T02:57:20.348Z,998.17
2017-12-26T02:58:20.520Z,998.17
2017-12-26T02:59:20.280Z,998.13
2017-12-26T03:00:20.432Z,998.07
2017-12-26T03:01:20.214Z,998.00
2017-12-26T03:02:20.343Z,997.98
2017-12-26T03:03:20.147Z,997.98
2017-12-26T03:04:20.257Z,997.98
2017-12-26T03:05:20.081Z,997.92
2017-12-26T03:06:20.270Z,997.91
2017-12-26T03:07:20.026Z,997.86
2017-12-26T03:08:20.178Z,997.85
2017-12-26T03:09:19.955Z,997.84
2017-12-26T03:10:20.089Z,997.75
2017-12-26T03:11:19.888Z,997.75
2017-12-26T03:12:19.908Z,997.69
2017-12-26T03:13:19.820Z,997.68
2017-12-26T03:14:19.816Z,997.64
2017-12-26T03:15:19.757Z,997.62
2017-12-26T03:16:19.824Z,997.63
2017-12-26T03:17:19.689Z,997.58
2017-12-26T03:18:19.738Z,997.58
2017-12-26T03:19:19.625Z,997.54
2017-12-26T03:20:19.648Z,997.58
2017-12-26T03:21:19.558Z,997.47
2017-12-26T03:22:19.558Z,997.46
2017-12-26T03:23:19.498Z,997.40
2017-12-26T03:24:19.573Z,997.38
2017-12-26T03:25:19.437Z,997.38
2017-12-26T03:26:19.488Z,997.41
2017-12-26T03:27:19.366Z,997.35
2017-12-26T03:28:19.396Z,997.34
2017-12-26T03:29:19.302Z,997.21
2017-12-26T03:30:19.420Z,997.20
2017-12-26T03:31:19.235Z,997.20
2017-12-26T03:32:19.340Z,997.12
2017-12-26T03:33:19.172Z,997.11
2017-12-26T03:34:19.233Z,997.11
2017-12-26T03:35:19.107Z,997.10
2017-12-26T03:36:19.140Z,997.08
2017-12-26T03:37:19.043Z,997.04
2017-12-26T03:38:19.163Z,996.96
2017-12-26T03:39:18.974Z,996.99
2017-12-26T03:40:19.067Z,996.96
2017-12-26T03:41:18.918Z,996.92
2017-12-26T03:42:18.988Z,996.91
2017-12-26T03:43:18.843Z,996.97
2017-12-26T03:44:18.909Z,996.93
2017-12-26T03:45:18.782Z,996.94
2017-12-26T03:46:18.800Z,996.84
2017-12-26T03:47:18.713Z,996.87
2017-12-26T03:48:18.821Z,996.86
2017-12-26T03:49:18.649Z,996.84
2017-12-26T03:50:18.726Z,996.82
2017-12-26T03:51:18.594Z,996.77
2017-12-26T03:52:18.638Z,996.77
2017-12-26T03:53:18.523Z,996.79
2017-12-26T03:54:18.557Z,996.73
2017-12-26T03:55:18.470Z,996.73
2017-12-26T03:56:18.571Z,996.81
2017-12-26T03:57:18.394Z,996.79
2017-12-26T03:58:18.478Z,996.81
2017-12-26T03:59:18.356Z,996.88
2017-12-26T04:00:18.392Z,996.72
2017-12-26T04:01:18.268Z,996.71
2017-12-26T04:02:18.310Z,996.80
2017-12-26T04:03:18.204Z,996.74
2017-12-26T04:04:18.348Z,996.71
2017-12-26T04:05:18.140Z,996.76
2017-12-26T04:06:18.227Z,996.70
2017-12-26T04:07:18.075Z,996.66
2017-12-26T04:08:18.135Z,996.61
2017-12-26T04:09:18.014Z,996.61
2017-12-26T04:10:18.047Z,996.57
2017-12-26T04:11:17.944Z,996.52
2017-12-26T04:12:18.061Z,996.51
2017-12-26T04:13:17.880Z,996.51
2017-12-26T04:14:17.978Z,996.43
2017-12-26T04:15:17.826Z,996.40
2017-12-26T04:16:17.902Z,996.39
2017-12-26T04:17:17.756Z,996.29
2017-12-26T04:18:17.799Z,996.36
2017-12-26T04:19:17.699Z,996.31
2017-12-26T04:20:17.807Z,996.25
2017-12-26T04:21:17.636Z,996.28
2017-12-26T04:22:17.729Z,996.16
2017-12-26T04:23:17.576Z,996.14
2017-12-26T04:24:17.630Z,996.18
2017-12-26T04:25:17.504Z,996.15
2017-12-26T04:26:17.649Z,996.10
2017-12-26T04:27:17.448Z,996.02
2017-12-26T04:28:17.559Z,996.08
2017-12-26T04:29:17.379Z,996.03
2017-12-26T04:30:17.474Z,995.99
2017-12-26T04:31:17.321Z,996.02
2017-12-26T04:32:17.379Z,995.88
2017-12-26T04:33:17.260Z,995.87
2017-12-26T04:34:17.395Z,995.91
2017-12-26T04:35:17.199Z,995.88
2017-12-26T04:36:17.306Z,995.88
2017-12-26T04:37:17.135Z,995.86
2017-12-26T04:38:17.218Z,995.96
2017-12-26T04:39:17.070Z,995.95
2017-12-26T04:40:17.129Z,995.97
2017-12-26T04:41:17.008Z,995.83
2017-12-26T04:42:17.150Z,995.87
2017-12-26T04:43:16.947Z,995.92
2017-12-26T04:44:17.055Z,995.77
2017-12-26T04:45:16.887Z,995.86
2017-12-26T04:46:16.962Z,995.80
2017-12-26T04:47:16.827Z,995.79
2017-12-26T04:48:16.978Z,995.78
2017-12-26T04:49:16.769Z,995.67
2017-12-26T04:50:16.894Z,995.79
2017-12-26T04:51:16.701Z,995.69
2017-12-26T04:52:17.828Z,995.68
2017-12-26T04:53:16.652Z,995.65
2017-12-26T04:54:16.712Z,995.62
2017-12-26T04:55:16.581Z,995.49
2017-12-26T04:56:16.727Z,995.56
2017-12-26T04:57:16.519Z,995.61
2017-12-26T04:58:16.642Z,995.61
2017-12-26T04:59:16.466Z,995.57
2017-12-26T05:00:16.549Z,995.58
2017-12-26T05:01:16.399Z,995.58
2017-12-26T05:02:16.562Z,995.42
2017-12-26T05:03:16.350Z,995.63
2017-12-26T05:04:16.473Z,995.55
2017-12-26T05:05:16.276Z,995.48
2017-12-26T05:06:16.386Z,995.44
2017-12-26T05:07:16.227Z,995.54
2017-12-26T05:08:16.298Z,995.41
2017-12-26T05:09:16.164Z,995.39
2017-12-26T05:10:16.312Z,995.41
2017-12-26T05:11:16.097Z,995.45
2017-12-26T05:12:16.222Z,995.40
2017-12-26T05:13:16.044Z,995.35
2017-12-26T05:14:16.133Z,995.30
2017-12-26T05:15:15.979Z,995.39
2017-12-26T05:16:16.147Z,995.27
2017-12-26T05:17:15.917Z,995.31
2017-12-26T05:18:16.059Z,995.34
2017-12-26T05:19:15.854Z,995.50
2017-12-26T05:20:15.970Z,995.84
2017-12-26T05:21:15.802Z,995.46
2017-12-26T05:22:15.880Z,995.49
2017-12-26T05:23:15.736Z,995.45
2017-12-26T05:24:15.895Z,995.38
2017-12-26T05:25:15.684Z,995.41
2017-12-26T05:26:15.809Z,995.41
2017-12-26T05:27:15.626Z,995.40
2017-12-26T05:28:15.719Z,995.40
2017-12-26T05:29:15.558Z,995.35
2017-12-26T05:30:15.732Z,995.38
2017-12-26T05:31:15.498Z,995.59
2017-12-26T05:32:15.642Z,995.52
2017-12-26T05:33:15.438Z,995.53
2017-12-26T05:34:15.554Z,995.68
2017-12-26T05:35:15.387Z,995.61
2017-12-26T05:36:15.568Z,995.48
2017-12-26T05:37:15.320Z,995.61
2017-12-26T05:38:15.481Z,995.59
2017-12-26T05:39:15.269Z,995.58
2017-12-26T05:40:15.290Z,995.68
2017-12-26T05:41:15.208Z,995.72
2017-12-26T05:42:15.202Z,995.71
2017-12-26T05:43:15.150Z,995.69
2017-12-26T05:44:15.214Z,995.76
2017-12-26T05:45:15.096Z,995.73
2017-12-26T05:46:15.127Z,995.62
2017-12-26T05:47:15.028Z,995.85
2017-12-26T05:48:15.039Z,995.93
2017-12-26T05:49:14.966Z,995.80
2017-12-26T05:50:15.058Z,995.85
2017-12-26T05:51:14.908Z,995.76
2017-12-26T05:52:14.974Z,995.79
2017-12-26T05:53:14.849Z,995.84
2017-12-26T05:54:14.887Z,995.93
2017-12-26T05:55:14.790Z,995.81
2017-12-26T05:56:14.801Z,995.85
2017-12-26T05:57:14.727Z,995.83
2017-12-26T05:58:14.806Z,995.87
2017-12-26T05:59:14.672Z,995.93
2017-12-26T06:00:14.721Z,995.87
2017-12-26T06:01:14.605Z,995.90
2017-12-26T06:02:14.630Z,995.99
2017-12-26T06:03:14.551Z,996.19
2017-12-26T06:04:14.654Z,995.98
2017-12-26T06:05:14.488Z,996.27
2017-12-26T06:06:14.553Z,996.13
2017-12-26T06:07:14.425Z,996.06
2017-12-26T06:08:14.470Z,996.05
2017-12-26T06:09:14.376Z,996.08
2017-12-26T06:10:14.481Z,996.17
2017-12-26T06:11:14.309Z,995.99
2017-12-26T06:12:14.396Z,996.08
2017-12-26T06:13:14.248Z,996.15
2017-12-26T06:14:14.306Z,996.10
2017-12-26T06:15:14.186Z,996.22
2017-12-26T06:16:14.214Z,996.10
2017-12-26T06:17:14.130Z,996.12
2017-12-26T06:18:14.229Z,996.21
2017-12-26T06:19:14.067Z,996.24
2017-12-26T06:20:14.146Z,996.27
2017-12-26T06:21:14.008Z,996.24
2017-12-26T06:22:14.056Z,996.21
2017-12-26T06:23:13.946Z,996.30
2017-12-26T06:24:14.067Z,996.30
2017-12-26T06:25:13.888Z,996.38
2017-12-26T06:26:13.981Z,996.46
2017-12-26T06:27:13.832Z,996.30
2017-12-26T06:28:13.890Z,996.33
2017-12-26T06:29:13.761Z,996.30
2017-12-26T06:30:13.798Z,996.23
2017-12-26T06:31:13.710Z,996.39
2017-12-26T06:32:13.814Z,996.38
2017-12-26T06:33:13.643Z,996.30
2017-12-26T06:34:13.726Z,996.40
2017-12-26T06:35:13.580Z,996.39
2017-12-26T06:36:13.660Z,996.53
2017-12-26T06:37:13.518Z,996.44
2017-12-26T06:38:13.651Z,996.50
2017-12-26T06:39:13.467Z,996.43
2017-12-26T06:40:13.563Z,996.33
2017-12-26T06:41:13.400Z,996.49
2017-12-26T06:42:13.470Z,996.47
2017-12-26T06:43:13.352Z,996.53
2017-12-26T06:44:13.390Z,996.46
2017-12-26T06:45:13.279Z,996.60
2017-12-26T06:46:13.398Z,996.62
2017-12-26T06:47:13.218Z,996.56
2017-12-26T06:48:13.310Z,996.59
2017-12-26T06:49:13.156Z,996.64
2017-12-26T06:50:13.219Z,996.59
2017-12-26T06:51:13.095Z,996.61
2017-12-26T06:52:13.234Z,996.73
2017-12-26T06:53:13.035Z,996.62
2017-12-26T06:54:13.144Z,996.55
2017-12-26T06:55:12.973Z,996.61
2017-12-26T06:56:13.057Z,996.69
2017-12-26T06:57:12.909Z,996.57
2017-12-26T06:58:12.969Z,996.71
2017-12-26T06:59:12.850Z,996.53
2017-12-26T07:00:12.981Z,996.64
2017-12-26T07:01:12.789Z,996.66
2017-12-26T07:02:12.891Z,996.50
2017-12-26T07:03:12.727Z,996.63
2017-12-26T07:04:12.803Z,996.54
2017-12-26T07:05:12.665Z,996.63
2017-12-26T07:06:12.715Z,996.59
2017-12-26T07:07:12.604Z,996.59
2017-12-26T07:08:12.727Z,996.68
2017-12-26T07:09:12.543Z,996.76
2017-12-26T07:10:12.645Z,996.77
2017-12-26T07:11:12.484Z,996.56
2017-12-26T07:12:12.554Z,996.62
2017-12-26T07:13:12.415Z,996.58
2017-12-26T07:14:12.566Z,996.76
2017-12-26T07:15:12.362Z,996.65
2017-12-26T07:16:12.476Z,996.68
2017-12-26T07:17:12.295Z,996.70
2017-12-26T07:18:12.391Z,996.77
2017-12-26T07:19:12.231Z,996.70
2017-12-26T07:20:12.301Z,996.67
2017-12-26T07:21:12.171Z,996.64
2017-12-26T07:22:12.314Z,996.59
2017-12-26T07:23:12.138Z,996.61
2017-12-26T07:24:12.227Z,996.62
2017-12-26T07:25:12.051Z,996.70
2017-12-26T07:26:12.201Z,996.69
2017-12-26T07:27:11.993Z,996.74
2017-12-26T07:28:12.150Z,996.71
2017-12-26T07:29:11.925Z,996.65
2017-12-26T07:30:12.061Z,996.79
2017-12-26T07:31:11.868Z,996.77
2017-12-26T07:32:11.972Z,996.80
2017-12-26T07:33:11.802Z,996.92
2017-12-26T07:34:11.886Z,996.86
2017-12-26T07:35:11.742Z,996.89
2017-12-26T07:36:11.898Z,996.96
2017-12-26T07:37:11.676Z,997.03
2017-12-26T07:38:11.810Z,996.98
2017-12-26T07:39:11.635Z,996.93
2017-12-26T07:40:11.721Z,996.98
2017-12-26T07:41:11.555Z,997.04
2017-12-26T07:42:11.632Z,997.03
2017-12-26T07:43:11.504Z,997.09
2017-12-26T07:44:11.647Z,997.10
2017-12-26T07:45:11.438Z,997.10
2017-12-26T07:46:11.559Z,997.15
2017-12-26T07:47:11.380Z,997.18
2017-12-26T07:48:11.469Z,997.20
2017-12-26T07:49:11.307Z,997.16
2017-12-26T07:50:11.483Z,997.16
2017-12-26T07:51:11.248Z,997.21
2017-12-26T07:52:11.396Z,997.16
2017-12-26T07:53:11.187Z,997.13
2017-12-26T07:54:11.303Z,997.13
2017-12-26T07:55:11.122Z,997.20
2017-12-26T07:56:11.223Z,997.24
2017-12-26T07:57:11.059Z,997.28
2017-12-26T07:58:11.230Z,997.25
2017-12-26T07:59:10.997Z,997.27
2017-12-26T08:00:11.142Z,997.21
2017-12-26T08:01:10.935Z,997.30
2017-12-26T08:02:11.050Z,997.33
2017-12-26T08:03:10.879Z,997.31
2017-12-26T08:04:10.969Z,997.49
2017-12-26T08:05:10.812Z,997.39
2017-12-26T08:06:10.987Z,997.38
2017-12-26T08:07:10.745Z,997.38
2017-12-26T08:08:10.789Z,997.35
2017-12-26T08:09:10.686Z,997.36
2017-12-26T08:10:10.706Z,997.22
2017-12-26T08:11:10.625Z,997.33
2017-12-26T08:12:10.716Z,997.36
2017-12-26T08:13:10.568Z,997.30
2017-12-26T08:14:10.626Z,997.21
2017-12-26T08:15:10.504Z,997.22
2017-12-26T08:16:10.537Z,997.30
2017-12-26T08:17:10.442Z,997.36
2017-12-26T08:18:10.461Z,997.31
2017-12-26T08:19:10.376Z,997.31
2017-12-26T08:20:10.461Z,997.33
2017-12-26T08:21:10.315Z,997.32
2017-12-26T08:22:10.375Z,997.35
2017-12-26T08:23:10.246Z,997.33
2017-12-26T08:24:10.285Z,997.39
2017-12-26T08:25:10.189Z,997.34
2017-12-26T08:26:10.197Z,997.32
2017-12-26T08:27:10.123Z,997.34
2017-12-26T08:28:10.209Z,997.29
2017-12-26T08:29:10.065Z,997.28
2017-12-26T08:30:10.125Z,997.27
2017-12-26T08:31:10.007Z,997.27
2017-12-26T08:32:10.034Z,997.25
2017-12-26T08:33:09.938Z,997.31
2017-12-26T08:34:09.951Z,997.32
2017-12-26T08:35:09.875Z,997.33
2017-12-26T08:36:09.960Z,997.31
2017-12-26T08:37:09.808Z,997.37
2017-12-26T08:38:09.870Z,997.33
2017-12-26T08:39:09.755Z,997.26
2017-12-26T08:40:09.781Z,997.26
2017-12-26T08:41:09.691Z,997.33
2017-12-26T08:42:09.795Z,997.25
2017-12-26T08:43:09.629Z,997.31
2017-12-26T08:44:09.706Z,997.29
2017-12-26T08:45:09.565Z,997.33
2017-12-26T08:46:09.618Z,997.39
2017-12-26T08:47:09.503Z,997.37
2017-12-26T08:48:09.529Z,997.31
2017-12-26T08:49:09.445Z,997.34
2017-12-26T08:50:09.543Z,997.33
2017-12-26T08:51:09.377Z,997.36
2017-12-26T08:52:09.456Z,997.29
2017-12-26T08:53:09.312Z,997.32
2017-12-26T08:54:09.369Z,997.34
2017-12-26T08:55:09.252Z,997.35
2017-12-26T08:56:09.284Z,997.35
2017-12-26T08:57:09.187Z,997.39
2017-12-26T08:58:09.293Z,997.28
2017-12-26T08:59:09.129Z,997.21
2017-12-26T09:00:09.206Z,997.24
2017-12-26T09:01:09.065Z,997.35
2017-12-26T09:02:09.116Z,997.31
2017-12-26T09:03:09.003Z,997.32
2017-12-26T09:04:09.129Z,997.36
2017-12-26T09:05:08.935Z,997.35
2017-12-26T09:06:09.041Z,997.42
2017-12-26T09:07:08.880Z,997.37
2017-12-26T09:08:08.960Z,997.47
2017-12-26T09:09:08.813Z,997.52
2017-12-26T09:10:08.864Z,997.52
2017-12-26T09:11:08.753Z,997.56
2017-12-26T09:12:08.875Z,997.58
2017-12-26T09:13:08.690Z,997.60
2017-12-26T09:14:08.735Z,997.62
2017-12-26T09:15:08.630Z,997.65
2017-12-26T09:16:08.699Z,997.63
2017-12-26T09:17:08.580Z,997.64
2017-12-26T09:18:09.635Z,997.62
2017-12-26T09:19:08.503Z,997.58
2017-12-26T09:20:08.625Z,997.61
2017-12-26T09:21:08.440Z,997.58
2017-12-26T09:22:08.540Z,997.70
2017-12-26T09:23:08.376Z,997.64
2017-12-26T09:24:08.445Z,997.64
2017-12-26T09:25:08.312Z,997.65
2017-12-26T09:26:08.360Z,997.71
2017-12-26T09:27:08.258Z,997.63
2017-12-26T09:28:08.270Z,997.69
2017-12-26T09:29:08.188Z,997.65
2017-12-26T09:30:08.285Z,997.65
2017-12-26T09:31:08.123Z,997.56
2017-12-26T09:32:08.194Z,997.60
2017-12-26T09:33:08.067Z,997.65
2017-12-26T09:34:08.206Z,997.70
2017-12-26T09:35:08.001Z,997.69
2017-12-26T09:36:08.117Z,997.72
2017-12-26T09:37:07.937Z,997.72
2017-12-26T09:38:08.034Z,997.70
2017-12-26T09:39:07.875Z,997.69
2017-12-26T09:40:07.945Z,997.68
2017-12-26T09:41:07.817Z,997.81
2017-12-26T09:42:07.958Z,997.82
2017-12-26T09:43:07.752Z,997.84
2017-12-26T09:44:07.870Z,997.83
2017-12-26T09:45:07.690Z,997.82
2017-12-26T09:46:07.838Z,997.86
2017-12-26T09:47:07.631Z,997.89
2017-12-26T09:48:07.693Z,997.91
2017-12-26T09:49:07.566Z,997.94
2017-12-26T09:50:07.705Z,997.89
2017-12-26T09:51:07.500Z,997.96
2017-12-26T09:52:07.617Z,997.94
2017-12-26T09:53:07.440Z,997.92
2017-12-26T09:54:07.528Z,998.04
2017-12-26T09:55:07.374Z,997.95
2017-12-26T09:56:07.441Z,997.99
2017-12-26T09:57:07.423Z,997.98
2017-12-26T09:58:07.281Z,997.98
2017-12-26T09:59:07.359Z,998.02
2017-12-26T10:00:07.221Z,998.00
2017-12-26T10:01:07.270Z,998.00
2017-12-26T10:02:07.161Z,997.98
2017-12-26T10:03:07.124Z,998.01
2017-12-26T10:04:08.220Z,997.98
2017-12-26T10:05:07.067Z,997.98
2017-12-26T10:06:07.100Z,997.95
2017-12-26T10:07:07.010Z,997.95
2017-12-26T10:08:07.013Z,997.93
2017-12-26T10:09:06.946Z,998.02
2017-12-26T10:10:06.923Z,998.03
2017-12-26T10:11:06.876Z,997.98
2017-12-26T10:12:06.948Z,998.01
2017-12-26T10:13:06.819Z,997.99
2017-12-26T10:14:06.850Z,998.02
2017-12-26T10:15:06.754Z,997.97
2017-12-26T10:16:06.792Z,998.01
2017-12-26T10:17:06.695Z,997.98
2017-12-26T10:18:06.775Z,998.02
2017-12-26T10:19:06.633Z,998.12
2017-12-26T10:20:06.682Z,998.06
2017-12-26T10:21:06.568Z,998.03
2017-12-26T10:22:06.597Z,998.08
2017-12-26T10:23:06.509Z,998.12
2017-12-26T10:24:06.508Z,998.13
2017-12-26T10:25:06.442Z,998.17
2017-12-26T10:26:06.521Z,998.10
2017-12-26T10:27:06.385Z,998.20
2017-12-26T10:28:06.433Z,998.22
2017-12-26T10:29:06.321Z,998.08
2017-12-26T10:30:06.345Z,998.06
2017-12-26T10:31:06.260Z,998.08
2017-12-26T10:32:06.256Z,998.08
2017-12-26T10:33:06.201Z,998.06
2017-12-26T10:34:06.266Z,998.15
2017-12-26T10:35:06.137Z,998.77
2017-12-26T10:36:06.181Z,998.95
2017-12-26T10:37:06.079Z,998.97
2017-12-26T10:38:06.095Z,998.99
2017-12-26T10:39:06.022Z,998.87
2017-12-26T10:40:06.114Z,998.93
2017-12-26T10:41:05.971Z,998.98
2017-12-26T10:42:06.016Z,998.98
2017-12-26T10:43:05.917Z,998.97
2017-12-26T10:44:05.927Z,998.94
2017-12-26T10:45:05.866Z,999.00
2017-12-26T10:46:05.943Z,998.93
2017-12-26T10:47:05.818Z,998.48
2017-12-26T10:48:05.852Z,998.95
2017-12-26T10:49:05.773Z,998.91
2017-12-26T10:50:05.779Z,998.51
2017-12-26T10:51:05.734Z,998.55
2017-12-26T10:52:05.714Z,998.75
2017-12-26T10:53:05.787Z,999.13
2017-12-26T10:54:05.669Z,999.18
2017-12-26T10:55:05.699Z,999.18
2017-12-26T10:56:05.627Z,998.84
2017-12-26T10:57:05.712Z,998.65
2017-12-26T10:58:05.595Z,999.03
2017-12-26T10:59:05.624Z,998.42
2017-12-26T11:00:05.553Z,998.47
2017-12-26T11:01:05.644Z,998.52
2017-12-26T11:02:05.519Z,998.34
2017-12-26T11:03:05.550Z,998.66
2017-12-26T11:04:05.531Z,998.63
2017-12-26T11:05:05.600Z,999.06
2017-12-26T11:06:05.495Z,998.31
2017-12-26T11:07:05.476Z,999.00
2017-12-26T11:08:05.402Z,998.34
2017-12-26T11:09:05.386Z,999.00
2017-12-26T11:10:05.354Z,999.25
2017-12-26T11:11:05.410Z,999.17
2017-12-26T11:12:05.317Z,999.05
2017-12-26T11:13:05.313Z,998.20
2017-12-26T11:14:05.278Z,998.34
2017-12-26T11:15:05.326Z,998.37
2017-12-26T11:16:05.231Z,998.30
2017-12-26T11:17:05.240Z,998.39
2017-12-26T11:18:05.184Z,999.11
2017-12-26T11:19:05.254Z,998.82
2017-12-26T11:20:05.146Z,998.78
2017-12-26T11:21:05.166Z,998.61
2017-12-26T11:22:05.175Z,999.30
2017-12-26T11:23:05.079Z,999.31
2017-12-26T11:24:05.087Z,999.37
2017-12-26T11:25:05.043Z,999.20
2017-12-26T11:26:05.097Z,999.54
2017-12-26T11:27:05.004Z,999.45
2017-12-26T11:28:05.009Z,998.57
2017-12-26T11:29:04.952Z,999.18
2017-12-26T11:30:05.030Z,998.93
2017-12-26T11:31:04.919Z,998.54
2017-12-26T11:32:04.935Z,998.95
2017-12-26T11:33:04.874Z,998.50
2017-12-26T11:34:04.951Z,998.98
2017-12-26T11:35:04.831Z,999.14
2017-12-26T11:36:04.863Z,998.43
2017-12-26T11:37:04.791Z,998.55
2017-12-26T11:38:04.893Z,999.00
2017-12-26T11:39:04.749Z,998.52
2017-12-26T11:40:04.799Z,999.18
2017-12-26T11:41:04.710Z,999.46
2017-12-26T11:42:04.809Z,999.00
2017-12-26T11:43:04.672Z,999.44
2017-12-26T11:44:04.709Z,998.79
2017-12-26T11:45:04.630Z,998.38
2017-12-26T11:46:04.721Z,999.30
2017-12-26T11:47:04.593Z,998.43
2017-12-26T11:48:04.634Z,998.27
2017-12-26T11:49:04.551Z,999.33
2017-12-26T11:50:04.650Z,998.33
2017-12-26T11:51:04.514Z,998.25
2017-12-26T11:52:04.560Z,998.17
2017-12-26T11:53:04.475Z,998.17
2017-12-26T11:54:04.470Z,998.27
